Date,TemperatureHighF,TemperatureAvgF,TemperatureLowF,DewpointHighF,DewpointAvgF,DewpointLowF,HumidityHigh,HumidityAvg,HumidityLow,PressureMaxIn,PressureMinIn,WindSpeedMaxMPH,WindSpeedAvgMPH,GustSpeedMaxMPH,PrecipitationSumIn
2013-1-1,27.9,14.4,6.3,20.3,2.1,-6.1,73,57,54,29.64,29.41,15,0,15,0.00
2013-1-2,17.1,6.8,-8.0,4.4,-8.3,-24.9,65,49,41,29.85,29.52,5,0,10,0.00
2013-1-3,21.0,6.2,-7.6,14.4,-7.7,-24.6,79,53,40,29.85,29.58,0,0,0,0.00
2013-1-4,28.4,25.2,20.7,20.9,16.4,11.8,78,69,50,29.58,29.44,9,0,22,0.00
2013-1-5,28.8,23.0,17.6,21.6,9.9,-29.1,83,58,42,29.94,29.49,13,0,13,0.04
2013-1-6,31.1,27.3,20.8,26.5,19.7,-19.8,86,73,57,29.85,29.58,8,0,8,0.00
2013-1-7,33.1,21.2,16.2,25.2,8.7,3.1,82,60,36,30.03,29.67,3,0,3,0.00
2013-1-8,38.5,28.6,23.2,18.3,13.8,8.1,75,54,40,30.09,29.85,10,0,10,0.00
2013-1-9,39.6,32.2,23.0,26.0,17.6,-16.0,76,56,10,30.06,29.64,17,0,17,0.04
2013-1-10,39.6,30.4,23.0,21.9,16.2,14.2,71,56,40,30.26,29.79,18,0,18,0.04
2013-1-11,40.5,32.4,22.3,31.0,17.1,7.3,77,55,29,30.23,29.79,11,0,11,0.08
2013-1-12,55.9,42.7,35.6,41.8,33.7,29.2,94,72,43,29.85,29.76,6,0,6,0.00
2013-1-13,80.6,47.9,39.2,46.9,39.9,30.6,94,75,43,29.85,29.61,16,0,16,0.00
2013-1-14,53.2,38.9,28.6,47.3,26.5,12.6,93,62,46,30.03,29.55,15,0,15,0.00
2013-1-15,38.5,28.3,25.0,15.4,10.6,6.9,58,47,33,30.06,29.94,6,0,6,0.00
2013-1-16,30.4,26.8,25.0,22.9,15.0,9.6,75,61,51,29.94,29.49,0,0,0,0.00
2013-1-17,28.6,15.6,7.2,21.5,-4.8,-15.3,76,40,34,29.85,29.58,7,0,7,0.00
2013-1-18,19.8,9.4,-1.3,-0.6,-12.5,-22.9,45,35,33,30.00,29.79,12,0,12,0.00
2013-1-19,37.8,30.4,16.9,23.4,14.2,-0.6,79,51,41,29.85,29.44,13,0,16,0.00
2013-1-20,39.2,27.0,7.7,26.2,10.4,-27.0,79,50,39,29.64,29.17,22,1,22,0.00
2013-1-21,16.2,8.9,2.5,-0.8,-7.4,-13.6,51,47,39,29.70,29.49,8,0,10,0.00
2013-1-22,14.0,4.4,-2.6,-1.1,-10.9,-18.6,51,48,45,29.70,29.47,13,0,13,0.00
2013-1-23,5.0,-6.5,-14.8,-11.9,-22.3,-29.9,45,45,45,29.79,29.70,10,0,10,0.00
2013-1-24,10.0,-2.6,-10.5,-7.1,-18.7,-26.0,45,45,45,29.97,29.76,14,0,14,0.00
2013-1-25,18.7,3.8,-6.9,-3.8,-15.6,-22.6,45,40,31,30.00,29.73,9,0,9,0.00
2013-1-26,19.4,6.4,-2.2,-3.8,-15.7,-23.7,37,35,34,29.97,29.73,8,0,8,0.00
2013-1-27,24.1,10.5,0.5,-1.5,-12.0,-20.7,36,35,30,30.14,29.94,5,0,5,0.00
2013-1-28,22.8,18.6,10.9,17.9,6.2,-11.3,81,60,35,30.09,29.67,0,0,0,0.00
2013-1-29,40.3,28.2,21.4,39.2,22.8,15.1,97,80,63,29.85,29.64,7,0,7,0.12
2013-1-30,56.5,49.6,38.8,48.0,42.9,36.6,97,79,60,29.64,29.08,19,2,19,0.20
2013-1-31,51.3,33.5,15.6,48.9,22.0,-1.0,94,64,42,29.26,28.70,26,2,26,0.43